sensor_id;sensor_type;location;lat;lon;timestamp;P1;durP1;ratioP1;P2;durP2;ratioP2
65271;SDS011;51868;48.812;8.198;2022-07-17T06:32:34;2.85;;;2.65;;
65271;SDS011;51868;48.812;8.198;2022-07-17T06:41:39;3.65;;;2.90;;
65271;SDS011;51868;48.812;8.198;2022-07-17T06:44:11;6.05;;;2.55;;
65271;SDS011;51868;48.812;8.198;2022-07-17T06:46:50;5.50;;;2.83;;
65271;SDS011;51868;48.812;8.198;2022-07-17T06:49:46;3.17;;;2.67;;
65271;SDS011;51868;48.812;8.198;2022-07-17T06:54:53;5.05;;;2.70;;
65271;SDS011;51868;48.812;8.198;2022-07-17T07:13:51;2.45;;;2.22;;
65271;SDS011;51868;48.812;8.198;2022-07-17T07:16:45;2.97;;;2.40;;
65271;SDS011;51868;48.812;8.198;2022-07-17T07:19:12;4.05;;;2.17;;
65271;SDS011;51868;48.812;8.198;2022-07-17T07:21:40;27.92;;;2.97;;
65271;SDS011;51868;48.812;8.198;2022-07-17T07:24:07;11.32;;;2.65;;
65271;SDS011;51868;48.812;8.198;2022-07-17T07:26:33;2.88;;;2.30;;
65271;SDS011;51868;48.812;8.198;2022-07-17T07:29:02;10.60;;;2.50;;
65271;SDS011;51868;48.812;8.198;2022-07-17T07:31:30;2.80;;;2.10;;
65271;SDS011;51868;48.812;8.198;2022-07-17T07:33:58;3.83;;;2.55;;
65271;SDS011;51868;48.812;8.198;2022-07-17T07:36:25;3.50;;;2.28;;
65271;SDS011;51868;48.812;8.198;2022-07-17T07:38:52;4.00;;;2.35;;
65271;SDS011;51868;48.812;8.198;2022-07-17T07:41:19;3.25;;;2.15;;
65271;SDS011;51868;48.812;8.198;2022-07-17T07:43:52;2.33;;;2.03;;
65271;SDS011;51868;48.812;8.198;2022-07-17T07:46:23;4.72;;;2.47;;
65271;SDS011;51868;48.812;8.198;2022-07-17T07:48:53;7.57;;;2.30;;
65271;SDS011;51868;48.812;8.198;2022-07-17T07:51:20;5.55;;;2.20;;
65271;SDS011;51868;48.812;8.198;2022-07-17T07:53:49;4.85;;;2.60;;
65271;SDS011;51868;48.812;8.198;2022-07-17T07:56:24;4.57;;;2.40;;
65271;SDS011;51868;48.812;8.198;2022-07-17T07:58:51;3.65;;;2.38;;
65271;SDS011;51868;48.812;8.198;2022-07-17T08:01:18;2.40;;;2.10;;
65271;SDS011;51868;48.812;8.198;2022-07-17T08:03:49;4.80;;;2.40;;
65271;SDS011;51868;48.812;8.198;2022-07-17T08:06:16;4.70;;;2.67;;
65271;SDS011;51868;48.812;8.198;2022-07-17T08:08:43;2.22;;;2.03;;
65271;SDS011;51868;48.812;8.198;2022-07-17T08:11:12;4.55;;;2.38;;
65271;SDS011;51868;48.812;8.198;2022-07-17T08:13:43;4.07;;;2.28;;
65271;SDS011;51868;48.812;8.198;2022-07-17T08:16:10;3.80;;;2.38;;
65271;SDS011;51868;48.812;8.198;2022-07-17T08:18:36;3.88;;;2.20;;
65271;SDS011;51868;48.812;8.198;2022-07-17T08:21:05;3.30;;;2.17;;
65271;SDS011;51868;48.812;8.198;2022-07-17T08:23:33;3.28;;;2.10;;
65271;SDS011;51868;48.812;8.198;2022-07-17T08:26:00;4.85;;;2.10;;
65271;SDS011;51868;48.812;8.198;2022-07-17T08:28:28;4.90;;;2.08;;
65271;SDS011;51868;48.812;8.198;2022-07-17T08:30:55;2.22;;;1.92;;
65271;SDS011;51868;48.812;8.198;2022-07-17T08:33:22;3.10;;;2.00;;
65271;SDS011;51868;48.812;8.198;2022-07-17T08:35:57;4.93;;;1.80;;
65271;SDS011;51868;48.812;8.198;2022-07-17T08:38:37;2.92;;;1.90;;
65271;SDS011;51868;48.812;8.198;2022-07-17T08:41:09;4.03;;;1.90;;
65271;SDS011;51868;48.812;8.198;2022-07-17T08:43:44;3.53;;;2.35;;
65271;SDS011;51868;48.812;8.198;2022-07-17T08:46:16;5.47;;;2.00;;
65271;SDS011;51868;48.812;8.198;2022-07-17T08:48:46;2.75;;;2.05;;
65271;SDS011;51868;48.812;8.198;2022-07-17T08:51:25;4.53;;;2.47;;
65271;SDS011;51868;48.812;8.198;2022-07-17T08:54:01;2.35;;;2.13;;
65271;SDS011;51868;48.812;8.198;2022-07-17T08:56:28;6.15;;;1.85;;
65271;SDS011;51868;48.812;8.198;2022-07-17T08:58:56;3.15;;;2.05;;
65271;SDS011;51868;48.812;8.198;2022-07-17T09:01:25;3.10;;;1.90;;
65271;SDS011;51868;48.812;8.198;2022-07-17T09:04:03;6.22;;;2.05;;
65271;SDS011;51868;48.812;8.198;2022-07-17T09:06:34;4.78;;;1.98;;
65271;SDS011;51868;48.812;8.198;2022-07-17T09:09:11;4.72;;;2.08;;
65271;SDS011;51868;48.812;8.198;2022-07-17T09:15:34;6.55;;;2.10;;
65271;SDS011;51868;48.812;8.198;2022-07-17T09:21:43;4.38;;;2.10;;
65271;SDS011;51868;48.812;8.198;2022-07-17T09:28:06;4.78;;;1.75;;
65271;SDS011;51868;48.812;8.198;2022-07-17T09:30:54;5.15;;;1.77;;
65271;SDS011;51868;48.812;8.198;2022-07-17T09:33:36;3.88;;;1.60;;
65271;SDS011;51868;48.812;8.198;2022-07-17T11:43:23;3.20;;;1.60;;
65271;SDS011;51868;48.812;8.198;2022-07-17T11:50:03;2.35;;;1.30;;
65271;SDS011;51868;48.812;8.198;2022-07-17T11:54:42;2.58;;;1.70;;
65271;SDS011;51868;48.812;8.198;2022-07-17T11:55:59;2.92;;;1.40;;
65271;SDS011;51868;48.812;8.198;2022-07-17T11:59:08;3.17;;;1.70;;
65271;SDS011;51868;48.812;8.198;2022-07-17T12:09:13;3.05;;;1.73;;
65271;SDS011;51868;48.812;8.198;2022-07-17T13:49:38;2.40;;;1.20;;
65271;SDS011;51868;48.812;8.198;2022-07-17T13:52:47;2.38;;;1.30;;
65271;SDS011;51868;48.812;8.198;2022-07-17T14:08:44;4.88;;;1.48;;
65271;SDS011;51868;48.812;8.198;2022-07-17T14:11:31;3.33;;;1.48;;
65271;SDS011;51868;48.812;8.198;2022-07-17T14:14:38;3.63;;;1.50;;
65271;SDS011;51868;48.812;8.198;2022-07-17T14:17:17;2.45;;;1.55;;
